Time;durP1;ratioP1;P1;durP2;ratioP2;P2;SDS_P1;SDS_P2;PMS_P1;PMS_P2;Temp;Humidity;BMP_temperature;BMP_pressure;BME280_temperature;BME280_humidity;BME280_pressure;Samples;Min_cycle;Max_cycle;Signal;HPM_P1;HPM_P2
2023/04/18 00:00:04;;;;;;;7.97;7.37;;;;;;;8.93;74.87;101814.00;5032970;28;20252;-79
2023/04/18 00:02:32;;;;;;;7.47;6.87;;;;;;;8.97;74.33;101806.25;5033002;28;20215;-79
2023/04/18 00:05:00;;;;;;;7.47;6.87;;;;;;;8.95;74.67;101807.09;5035387;28;20208;-79
2023/04/18 00:07:27;;;;;;;7.93;7.33;;;;;;;8.92;74.73;101808.81;5036938;28;20268;-79
2023/04/18 00:09:53;;;;;;;6.97;6.47;;;;;;;8.93;74.76;101803.59;5036940;28;20207;-79
2023/04/18 00:12:20;;;;;;;8.33;7.63;;;;;;;8.92;75.16;101799.25;5036879;28;20251;-81
2023/04/18 00:14:46;;;;;;;7.97;7.27;;;;;;;8.89;75.50;101785.34;5036298;28;20306;-80
2023/04/18 00:17:13;;;;;;;8.63;7.80;;;;;;;8.88;76.26;101779.25;5036873;28;20226;-80
2023/04/18 00:19:42;;;;;;;8.27;7.50;;;;;;;8.89;75.97;101769.72;5036465;28;20209;-79
2023/04/18 00:22:10;;;;;;;7.33;6.80;;;;;;;8.82;77.19;101754.88;5036818;28;20211;-79
2023/04/18 00:24:36;;;;;;;7.80;7.20;;;;;;;8.82;77.56;101750.56;5036645;28;20239;-78
2023/04/18 00:27:02;;;;;;;7.90;7.30;;;;;;;8.79;78.05;101734.03;5036324;28;20229;-79
2023/04/18 00:29:30;;;;;;;8.93;8.23;;;;;;;8.77;79.06;101725.34;5035949;28;20204;-80
2023/04/18 00:31:57;;;;;;;7.50;6.90;;;;;;;8.71;79.50;101703.59;5036272;28;20209;-79
2023/04/18 00:34:23;;;;;;;7.57;6.97;;;;;;;8.71;79.95;101692.31;5036214;28;20577;-82
2023/04/18 00:36:49;;;;;;;8.07;7.43;;;;;;;8.74;78.62;101705.34;5036343;28;20285;-80
2023/04/18 00:39:17;;;;;;;7.67;7.07;;;;;;;8.75;79.43;101704.50;5036364;28;20250;-79
2023/04/18 00:41:43;;;;;;;8.00;7.40;;;;;;;8.68;78.58;101718.31;5036242;28;20260;-81
2023/04/18 00:44:10;;;;;;;7.37;6.83;;;;;;;8.68;78.68;101715.69;5036190;28;20259;-79
2023/04/18 00:46:36;;;;;;;7.77;7.17;;;;;;;8.60;79.60;101720.81;5034859;28;20239;-79
2023/04/18 00:49:02;;;;;;;7.80;7.20;;;;;;;8.63;79.63;101713.06;5034931;28;20211;-79
2023/04/18 00:51:29;;;;;;;7.60;7.00;;;;;;;8.61;79.27;101713.91;5035802;28;20263;-79
2023/04/18 00:53:56;;;;;;;9.10;8.40;;;;;;;8.59;79.07;101734.72;5035823;28;20297;-79
2023/04/18 00:56:24;;;;;;;8.53;7.77;;;;;;;8.49;79.47;101720.72;5035176;28;20212;-81
2023/04/18 00:58:51;;;;;;;8.43;7.73;;;;;;;8.51;79.56;101720.75;5034892;28;20575;-80
2023/04/18 01:01:18;;;;;;;8.73;7.93;;;;;;;8.51;78.39;101729.41;5035612;28;20213;-79
2023/04/18 01:03:44;;;;;;;8.33;7.63;;;;;;;8.49;78.54;101743.28;5035643;28;20254;-79
2023/04/18 01:06:10;;;;;;;7.47;6.77;;;;;;;8.40;79.43;101735.34;5035943;28;20733;-80
2023/04/18 01:08:37;;;;;;;8.10;7.50;;;;;;;8.40;79.85;101727.53;5035218;28;20711;-79
2023/04/18 01:11:03;;;;;;;8.80;8.10;;;;;;;8.46;79.97;101722.41;5035473;28;20676;-79
2023/04/18 01:13:31;;;;;;;8.43;7.67;;;;;;;8.44;79.41;101716.31;5035007;28;20211;-79
2023/04/18 01:15:57;;;;;;;8.10;7.50;;;;;;;8.44;79.27;101729.34;5034294;28;20788;-81
2023/04/18 01:18:26;;;;;;;8.53;7.77;;;;;;;8.38;80.54;101727.50;5035234;28;20225;-79
2023/04/18 01:20:55;;;;;;;7.97;7.37;;;;;;;8.36;80.64;101703.19;5035496;28;20356;-79
2023/04/18 01:23:22;;;;;;;8.53;7.83;;;;;;;8.37;80.22;101707.56;5034874;28;20211;-81
2023/04/18 01:25:50;;;;;;;8.90;8.10;;;;;;;8.40;80.38;101720.59;5035250;28;20201;-80
2023/04/18 01:28:16;;;;;;;8.00;7.37;;;;;;;8.38;80.24;101724.03;5034436;28;20260;-80
2023/04/18 01:30:43;;;;;;;8.10;7.47;;;;;;;8.39;80.23;101720.59;5035051;28;20208;-79
2023/04/18 01:33:09;;;;;;;8.17;7.47;;;;;;;8.35;80.31;101717.09;5035132;28;20234;-79
2023/04/18 01:35:36;;;;;;;8.07;7.37;;;;;;;8.38;80.46;101727.50;5034886;28;20286;-79
2023/04/18 01:38:02;;;;;;;8.03;7.33;;;;;;;8.33;80.80;101724.88;5034999;28;20236;-78
2023/04/18 01:40:29;;;;;;;9.97;7.30;;;;;;;8.35;80.06;101730.97;5034805;28;20218;-81
2023/04/18 01:42:57;;;;;;;8.50;7.80;;;;;;;8.34;80.59;101733.53;5034564;28;20694;-78
2023/04/18 01:45:24;;;;;;;9.20;8.40;;;;;;;8.32;80.23;101724.84;5034708;28;20200;-81
2023/04/18 01:47:50;;;;;;;9.13;8.33;;;;;;;8.34;80.14;101738.72;5034394;28;20290;-79
2023/04/18 01:50:16;;;;;;;9.67;8.77;;;;;;;8.27;80.56;101731.75;5034670;28;20212;-78
2023/04/18 01:52:43;;;;;;;8.70;8.00;;;;;;;8.24;80.87;101727.34;5034744;28;20215;-79
2023/04/18 01:55:10;;;;;;;9.10;8.40;;;;;;;8.21;81.22;101714.31;5034435;28;20235;-78
2023/04/18 01:57:36;;;;;;;8.47;7.77;;;;;;;8.19;81.20;101713.44;5034370;28;20229;-79
2023/04/18 02:00:06;;;;;;;9.83;9.03;;;;;;;8.11;81.39;101705.53;5034379;28;20264;-79
2023/04/18 02:02:32;;;;;;;10.37;9.37;;;;;;;8.11;81.95;101700.34;5034279;28;20697;-79
2023/04/18 02:04:59;;;;;;;9.53;8.73;;;;;;;8.15;81.84;101691.72;5034146;28;20247;-79
2023/04/18 02:07:25;;;;;;;10.17;9.23;;;;;;;8.12;82.11;101691.66;5033868;28;20643;-79
2023/04/18 02:09:52;;;;;;;12.00;10.90;;;;;;;8.14;81.83;101702.09;5034213;28;20249;-78
2023/04/18 02:12:18;;;;;;;11.37;10.33;;;;;;;8.11;82.30;101697.75;5033855;28;20741;-79
2023/04/18 02:14:44;;;;;;;10.40;9.60;;;;;;;8.12;82.63;101689.06;5034012;28;20222;-78
2023/04/18 02:17:12;;;;;;;10.30;9.17;;;;;;;8.12;82.66;101696.00;5034221;28;20275;-79
2023/04/18 02:19:38;;;;;;;10.53;9.63;;;;;;;8.08;82.83;101689.03;5033849;28;20727;-78
2023/04/18 02:22:05;;;;;;;10.57;9.70;;;;;;;8.04;83.96;101669.91;5033397;28;20213;-79
2023/04/18 02:24:31;;;;;;;10.80;9.20;;;;;;;8.04;83.81;101654.31;5033217;28;20213;-78
2023/04/18 02:26:58;;;;;;;10.83;9.73;;;;;;;8.07;83.63;101656.97;5033479;28;20284;-80
2023/04/18 02:29:24;;;;;;;10.30;9.50;;;;;;;8.09;83.51;101657.84;5033718;28;20213;-81
2023/04/18 02:31:50;;;;;;;10.57;9.67;;;;;;;8.03;83.68;101659.53;5033744;28;20205;-81
2023/04/18 02:34:18;;;;;;;10.67;9.77;;;;;;;8.07;83.75;101659.56;5033778;28;20206;-79
2023/04/18 02:36:45;;;;;;;11.17;10.17;;;;;;;8.07;84.33;101654.34;5033126;28;20230;-81
2023/04/18 02:39:11;;;;;;;10.33;9.53;;;;;;;8.03;85.40;101643.91;5033059;28;20202;-79
2023/04/18 02:41:38;;;;;;;10.20;9.40;;;;;;;8.06;85.19;101630.94;5033413;28;20216;-79
2023/04/18 02:44:05;;;;;;;11.20;10.13;;;;;;;8.00;84.85;101638.66;5033354;28;20213;-79
2023/04/18 02:46:32;;;;;;;10.37;9.53;;;;;;;7.96;85.46;101625.63;5033305;28;20259;-79
2023/04/18 02:48:58;;;;;;;10.13;9.23;;;;;;;7.92;86.90;101609.97;5033346;28;20742;-78
2023/04/18 02:51:26;;;;;;;9.77;8.97;;;;;;;7.93;86.37;101610.00;5033016;28;20256;-79
2023/04/18 02:53:54;;;;;;;10.53;9.73;;;;;;;7.98;86.47;101603.97;5033013;28;20211;-78
2023/04/18 02:56:21;;;;;;;9.37;8.37;;;;;;;8.01;85.88;101617.00;5032693;28;20237;-78
2023/04/18 02:58:49;;;;;;;10.30;9.50;;;;;;;8.04;85.90;101624.84;5032681;28;20209;-78
2023/04/18 03:01:15;;;;;;;9.57;8.77;;;;;;;7.97;86.14;101626.53;5032901;28;20214;-78
2023/04/18 03:03:42;;;;;;;10.90;9.80;;;;;;;7.95;86.33;101625.63;5033198;28;20211;-80
2023/04/18 03:06:08;;;;;;;9.87;9.17;;;;;;;7.93;86.69;101620.41;5032697;28;20255;-79
2023/04/18 03:08:36;;;;;;;10.30;9.47;;;;;;;7.96;86.06;101623.03;5032590;28;20276;-79
2023/04/18 03:11:02;;;;;;;10.73;9.83;;;;;;;8.00;86.78;101629.13;5032693;28;20613;-81
2023/04/18 03:13:28;;;;;;;11.03;10.03;;;;;;;8.01;86.50;101632.59;5032884;28;20205;-80
2023/04/18 03:15:55;;;;;;;11.80;10.70;;;;;;;8.02;86.03;101645.63;5032778;28;20226;-79
2023/04/18 03:18:22;;;;;;;11.03;10.03;;;;;;;7.96;87.34;101629.97;5032563;28;20278;-79
2023/04/18 03:20:48;;;;;;;11.30;10.40;;;;;;;7.99;86.92;101623.91;5032376;28;20621;-79
2023/04/18 03:23:14;;;;;;;11.20;10.10;;;;;;;7.96;86.78;101628.22;5032878;28;20276;-79
2023/04/18 03:25:42;;;;;;;11.67;10.70;;;;;;;7.91;87.56;101614.31;5032400;28;20209;-79
2023/04/18 03:28:08;;;;;;;12.43;11.33;;;;;;;7.93;87.09;101616.94;5031885;28;20708;-79
2023/04/18 03:30:35;;;;;;;11.90;10.80;;;;;;;7.96;87.45;101622.16;5032293;28;20208;-79
2023/04/18 03:33:04;;;;;;;12.47;11.43;;;;;;;7.96;86.93;101624.75;5032256;28;20266;-78
2023/04/18 03:35:30;;;;;;;12.60;11.50;;;;;;;7.91;88.02;101622.13;5032300;28;20233;-79
2023/04/18 03:37:57;;;;;;;12.50;11.37;;;;;;;7.93;87.13;101624.75;5031977;28;20235;-79
2023/04/18 03:40:23;;;;;;;13.33;12.23;;;;;;;7.88;88.42;101624.66;5035438;28;20216;-79
2023/04/18 03:42:51;;;;;;;15.40;14.10;;;;;;;7.82;88.28;101619.41;5035772;28;20740;-79
2023/04/18 03:45:17;;;;;;;14.47;13.07;;;;;;;7.76;88.84;101601.13;5036180;28;20198;-79
2023/04/18 03:47:44;;;;;;;14.67;13.37;;;;;;;7.83;88.71;101599.47;5035534;28;20234;-79
2023/04/18 03:50:10;;;;;;;16.50;15.03;;;;;;;7.86;88.38;101615.13;5036066;28;20204;-79
2023/04/18 03:52:37;;;;;;;14.57;13.10;;;;;;;7.88;87.99;101627.28;5036014;28;20204;-78
2023/04/18 03:55:03;;;;;;;14.77;13.57;;;;;;;7.89;88.10;101641.16;5035589;28;20204;-78
2023/04/18 03:57:30;;;;;;;14.00;12.73;;;;;;;7.88;88.62;101642.00;5035317;28;20287;-78
2023/04/18 03:59:57;;;;;;;16.93;15.33;;;;;;;7.90;87.89;101640.28;5035525;28;20207;-78
2023/04/18 04:02:24;;;;;;;16.23;14.80;;;;;;;7.84;88.95;101640.22;5035668;28;20281;-78
2023/04/18 04:04:50;;;;;;;15.33;14.03;;;;;;;7.83;88.80;101628.97;5035727;28;20212;-78
2023/04/18 04:07:17;;;;;;;14.07;12.83;;;;;;;7.88;88.63;101637.66;5040642;28;20249;-80
2023/04/18 04:09:43;;;;;;;15.60;14.20;;;;;;;7.85;88.58;101639.34;5037616;28;20213;-78
2023/04/18 04:12:09;;;;;;;15.67;14.23;;;;;;;7.82;88.81;101636.72;5035318;28;20224;-78
2023/04/18 04:14:36;;;;;;;15.77;14.37;;;;;;;7.86;88.09;101641.13;5036458;28;20645;-79
2023/04/18 04:17:03;;;;;;;14.60;13.40;;;;;;;7.90;87.86;101653.28;5035198;28;20235;-79
2023/04/18 04:19:30;;;;;;;15.00;13.70;;;;;;;7.90;88.42;101653.28;5035311;28;20745;-78
2023/04/18 04:21:56;;;;;;;15.80;14.33;;;;;;;7.92;88.00;101661.97;5035751;28;20257;-78
2023/04/18 04:24:22;;;;;;;16.23;14.87;;;;;;;7.93;87.92;101674.13;5036481;28;20203;-78
2023/04/18 04:26:50;;;;;;;15.80;14.27;;;;;;;7.93;88.00;101675.00;5034993;28;20713;-78
2023/04/18 04:29:17;;;;;;;15.37;14.10;;;;;;;7.95;87.61;101683.69;5034987;28;20207;-78
2023/04/18 04:31:44;;;;;;;14.73;13.43;;;;;;;7.95;87.17;101696.69;5035411;28;20228;-79
2023/04/18 04:34:12;;;;;;;14.77;13.47;;;;;;;7.96;88.08;101705.34;5036743;28;20205;-79
2023/04/18 04:36:40;;;;;;;14.87;13.60;;;;;;;7.91;87.21;101702.72;5036249;28;20335;-78
2023/04/18 04:39:07;;;;;;;15.27;13.83;;;;;;;7.84;88.14;101693.06;5035600;28;20216;-78
2023/04/18 04:41:36;;;;;;;14.73;13.43;;;;;;;7.88;88.13;101699.19;5036038;28;20218;-78
2023/04/18 04:44:03;;;;;;;15.73;13.97;;;;;;;7.87;88.19;101693.13;5035597;28;20230;-78
2023/04/18 04:46:29;;;;;;;14.40;12.93;;;;;;;7.91;87.43;101701.84;5035103;28;20202;-78
2023/04/18 04:48:56;;;;;;;14.77;13.47;;;;;;;7.94;87.28;101707.94;5045945;23;20636;-75
2023/04/18 04:51:23;;;;;;;14.87;13.57;;;;;;;7.89;87.72;101712.22;4974102;28;20222;-77
2023/04/18 04:53:50;;;;;;;14.40;13.20;;;;;;;7.92;87.70;101716.56;4975325;28;20213;-76
2023/04/18 04:56:16;;;;;;;14.13;12.93;;;;;;;7.92;87.67;101717.44;4975537;28;20578;-76
2023/04/18 04:58:43;;;;;;;14.63;13.27;;;;;;;7.91;87.11;101723.50;4974340;28;20230;-76
2023/04/18 05:01:11;;;;;;;13.83;12.43;;;;;;;7.88;87.24;101730.38;4975272;28;20250;-77
2023/04/18 05:03:37;;;;;;;14.63;13.23;;;;;;;7.89;87.81;101725.22;4975709;28;20302;-76
2023/04/18 05:06:04;;;;;;;13.07;11.77;;;;;;;7.88;87.03;101731.25;4975664;28;20260;-76
2023/04/18 05:08:32;;;;;;;14.27;13.00;;;;;;;7.89;87.48;101734.75;4975116;28;20224;-76
2023/04/18 05:10:58;;;;;;;14.13;12.97;;;;;;;7.91;87.56;101741.72;4975317;28;20289;-76
2023/04/18 05:13:25;;;;;;;14.73;13.30;;;;;;;7.92;87.18;101747.78;4975515;28;20214;-76
2023/04/18 05:15:51;;;;;;;14.93;13.63;;;;;;;7.96;87.00;101753.03;4975357;28;20603;-76
2023/04/18 05:18:18;;;;;;;14.33;13.13;;;;;;;7.95;86.58;101766.03;4975039;28;20280;-76
2023/04/18 05:20:44;;;;;;;15.13;13.63;;;;;;;7.96;86.69;101763.41;4975218;28;20268;-76
2023/04/18 05:23:11;;;;;;;14.03;12.83;;;;;;;7.96;87.52;101760.81;4975108;28;20246;-76
2023/04/18 05:25:38;;;;;;;14.60;13.30;;;;;;;7.91;87.34;101761.63;4975104;28;20251;-76
2023/04/18 05:28:07;;;;;;;14.50;13.30;;;;;;;7.94;87.02;101770.31;4974523;28;20226;-76
2023/04/18 05:30:33;;;;;;;14.03;12.73;;;;;;;8.00;86.82;101777.34;4974897;28;20211;-76
2023/04/18 05:32:59;;;;;;;13.03;11.93;;;;;;;8.02;86.47;101778.22;4974947;28;20217;-76
2023/04/18 05:35:26;;;;;;;14.03;12.93;;;;;;;8.02;85.76;101786.03;4974989;28;20208;-76
2023/04/18 05:37:52;;;;;;;14.20;13.00;;;;;;;8.01;86.51;101786.00;4974671;28;20233;-76
2023/04/18 05:40:19;;;;;;;14.57;13.03;;;;;;;7.91;86.77;101798.03;4982678;28;20214;-83
2023/04/18 05:42:46;;;;;;;14.03;12.73;;;;;;;7.85;87.37;101779.72;4986194;28;20692;-82
2023/04/18 05:45:13;;;;;;;13.13;11.87;;;;;;;7.89;87.35;101774.63;4986380;28;20210;-81
2023/04/18 05:47:39;;;;;;;13.13;12.03;;;;;;;7.95;87.01;101773.81;4987418;28;20222;-81
2023/04/18 05:50:07;;;;;;;14.20;12.73;;;;;;;7.95;86.88;101776.44;4987966;28;20279;-80
2023/04/18 05:52:33;;;;;;;13.63;12.50;;;;;;;7.96;87.12;101781.63;4987447;28;20267;-80
2023/04/18 05:55:00;;;;;;;14.07;12.87;;;;;;;7.97;86.65;101790.31;4987470;28;20415;-81
2023/04/18 05:57:26;;;;;;;15.20;13.80;;;;;;;7.98;86.41;101796.38;4986516;28;20653;-82
2023/04/18 05:59:54;;;;;;;13.33;12.23;;;;;;;7.96;86.93;101792.03;4987443;28;20202;-81
2023/04/18 06:02:21;;;;;;;13.47;12.47;;;;;;;7.96;85.75;101812.81;4986616;28;20233;-80
2023/04/18 06:04:47;;;;;;;14.47;13.23;;;;;;;7.85;86.91;101798.81;4987212;28;20689;-82
2023/04/18 06:07:14;;;;;;;14.00;12.60;;;;;;;7.88;86.26;101801.44;4984543;28;20248;-81
2023/04/18 06:09:40;;;;;;;13.53;12.50;;;;;;;7.83;86.10;101820.41;4977207;28;20239;-82
2023/04/18 06:12:07;;;;;;;14.27;13.03;;;;;;;7.86;86.61;101810.94;4981122;28;20202;-81
2023/04/18 06:14:33;;;;;;;14.27;13.07;;;;;;;7.90;86.38;101811.88;4986667;28;20222;-82
2023/04/18 06:17:01;;;;;;;14.53;13.40;;;;;;;7.92;86.27;101817.97;4986713;28;20701;-81
2023/04/18 06:19:27;;;;;;;15.17;13.67;;;;;;;7.93;85.73;101819.72;4987143;28;20208;-81
2023/04/18 06:21:54;;;;;;;14.97;13.80;;;;;;;7.94;85.80;101824.94;4980773;28;20213;-81
2023/04/18 06:24:20;;;;;;;15.30;14.00;;;;;;;7.91;85.96;101834.44;4974564;28;20204;-79
2023/04/18 06:26:47;;;;;;;13.47;12.47;;;;;;;7.93;85.03;101846.59;4972085;28;20226;-80
2023/04/18 06:29:13;;;;;;;14.67;13.27;;;;;;;7.83;86.14;101841.22;4981881;28;20650;-82
2023/04/18 06:31:40;;;;;;;14.13;12.93;;;;;;;7.86;85.42;101838.69;4988675;28;20218;-83
2023/04/18 06:34:08;;;;;;;14.23;13.03;;;;;;;7.89;85.40;101849.13;4986747;28;20268;-81
2023/04/18 06:36:35;;;;;;;13.70;12.40;;;;;;;7.93;85.31;101854.41;4987971;28;20227;-82
2023/04/18 06:39:01;;;;;;;13.43;12.33;;;;;;;7.99;84.62;101864.03;4986741;28;20210;-80
2023/04/18 06:41:27;;;;;;;13.30;12.17;;;;;;;7.97;84.74;101873.53;4984242;28;20663;-82
2023/04/18 06:43:54;;;;;;;13.70;12.50;;;;;;;8.04;84.31;101883.16;4988016;28;20208;-83
2023/04/18 06:46:20;;;;;;;12.63;11.63;;;;;;;7.96;84.61;101882.16;4987814;28;20205;-83
2023/04/18 06:48:47;;;;;;;14.13;12.93;;;;;;;8.03;84.25;101889.22;4986848;28;20292;-80
2023/04/18 06:51:15;;;;;;;13.40;12.40;;;;;;;8.03;84.84;101881.41;4981712;28;20201;-83
2023/04/18 06:53:41;;;;;;;13.13;12.03;;;;;;;8.09;84.30;101886.69;4976486;28;20208;-83
2023/04/18 06:56:08;;;;;;;13.83;12.53;;;;;;;8.13;83.19;101900.63;4974811;28;20230;-81
2023/04/18 06:58:34;;;;;;;13.30;12.27;;;;;;;8.06;84.12;101904.84;4993608;28;20697;-82
2023/04/18 07:01:00;;;;;;;13.53;12.47;;;;;;;8.12;84.12;101907.53;4984356;28;20215;-82
2023/04/18 07:03:27;;;;;;;13.33;12.33;;;;;;;8.16;83.99;101911.06;4986166;28;20270;-82
2023/04/18 07:05:54;;;;;;;13.57;12.27;;;;;;;8.26;82.76;101927.69;4985870;28;20209;-83
2023/04/18 07:08:22;;;;;;;13.70;12.60;;;;;;;8.25;83.25;101937.22;4985158;28;20251;-82
2023/04/18 07:10:48;;;;;;;13.47;12.37;;;;;;;8.26;83.39;101936.34;4985395;28;20210;-82
2023/04/18 07:13:14;;;;;;;13.33;12.23;;;;;;;8.34;83.25;101932.16;4982018;28;20204;-82
2023/04/18 07:15:41;;;;;;;13.27;12.27;;;;;;;8.35;82.58;101949.50;4975151;28;20205;-82
2023/04/18 07:18:07;;;;;;;14.03;12.83;;;;;;;8.30;82.43;101952.88;4976013;28;20224;-82
2023/04/18 07:20:34;;;;;;;13.40;12.30;;;;;;;8.25;82.87;101959.75;4977283;28;20231;-82
2023/04/18 07:23:00;;;;;;;12.67;11.43;;;;;;;8.19;83.68;101947.53;4971603;28;20224;-83
2023/04/18 07:25:28;;;;;;;13.50;12.47;;;;;;;8.27;82.84;101943.31;4966665;29;20264;-83
2023/04/18 07:27:54;;;;;;;13.73;12.57;;;;;;;8.31;82.36;101959.84;4976148;28;20231;-78
2023/04/18 07:30:21;;;;;;;14.37;13.07;;;;;;;8.38;83.03;101955.59;4991679;28;20213;-82
2023/04/18 07:32:48;;;;;;;12.90;11.90;;;;;;;8.41;82.83;101956.56;4974396;28;20218;-83
2023/04/18 07:35:14;;;;;;;12.83;11.77;;;;;;;8.52;82.23;101960.19;4972382;28;20265;-80
2023/04/18 07:37:41;;;;;;;13.43;12.13;;;;;;;8.60;81.23;101991.50;4962893;28;20240;-81
2023/04/18 07:40:08;;;;;;;12.57;11.43;;;;;;;8.70;80.26;102024.66;4964109;29;20212;-80
2023/04/18 07:42:36;;;;;;;12.57;11.57;;;;;;;8.73;80.52;102029.03;4966245;29;20213;-81
2023/04/18 07:45:03;;;;;;;12.97;11.97;;;;;;;8.70;80.45;102044.59;4967311;29;20266;-80
2023/04/18 07:47:29;;;;;;;12.57;11.63;;;;;;;8.78;80.49;102036.88;4967009;29;20226;-81
2023/04/18 07:49:56;;;;;;;12.63;11.53;;;;;;;8.86;80.21;102041.38;4966473;28;20214;-81
2023/04/18 07:52:22;;;;;;;13.27;12.27;;;;;;;8.94;80.60;102047.56;4967050;28;20210;-81
2023/04/18 07:54:49;;;;;;;13.03;11.83;;;;;;;8.99;80.30;102047.59;4967133;28;20216;-81
2023/04/18 07:57:15;;;;;;;12.67;11.67;;;;;;;9.04;79.36;102068.50;4973931;28;20282;-81
2023/04/18 07:59:43;;;;;;;12.57;11.57;;;;;;;9.08;78.56;102092.03;4984515;28;20265;-81
2023/04/18 08:02:09;;;;;;;13.00;12.00;;;;;;;9.05;79.17;102104.13;4980839;28;20215;-81
2023/04/18 08:04:36;;;;;;;13.27;12.17;;;;;;;9.01;79.31;102087.56;4983220;28;20277;-83
2023/04/18 08:07:02;;;;;;;13.80;12.70;;;;;;;9.06;78.44;102098.06;4978423;28;20256;-83
2023/04/18 08:09:29;;;;;;;12.87;11.87;;;;;;;9.04;78.55;102099.75;4979120;28;20623;-83
2023/04/18 08:11:56;;;;;;;12.87;11.87;;;;;;;9.16;77.46;102120.78;4981041;28;20234;-83
2023/04/18 08:14:23;;;;;;;13.27;12.17;;;;;;;9.11;78.43;102144.16;4982833;28;20221;-82
2023/04/18 08:16:50;;;;;;;13.20;12.20;;;;;;;9.19;78.04;102114.75;4980964;28;20235;-83
2023/04/18 08:19:17;;;;;;;13.67;12.60;;;;;;;9.30;76.99;102147.03;4980535;28;20226;-83
2023/04/18 08:21:43;;;;;;;13.13;11.83;;;;;;;9.37;77.01;102155.81;4981618;28;20629;-83
2023/04/18 08:24:10;;;;;;;12.63;11.53;;;;;;;9.43;76.56;102167.19;4981537;28;20207;-81
2023/04/18 08:26:36;;;;;;;12.70;11.73;;;;;;;9.38;77.74;102157.56;4984106;28;20211;-81
2023/04/18 08:29:03;;;;;;;12.63;11.27;;;;;;;9.50;76.91;102152.53;4985763;28;20211;-81
2023/04/18 08:31:30;;;;;;;13.10;12.00;;;;;;;9.61;76.26;102165.69;5003060;28;20296;-82
2023/04/18 08:33:58;;;;;;;12.77;11.67;;;;;;;9.61;76.39;102189.13;5005435;28;20211;-81
2023/04/18 08:36:24;;;;;;;12.30;11.40;;;;;;;9.61;76.93;102174.38;5005838;28;20218;-80
2023/04/18 08:38:51;;;;;;;11.20;10.37;;;;;;;9.72;76.52;102169.31;5004589;28;20292;-81
2023/04/18 08:41:21;;;;;;;12.70;11.60;;;;;;;9.84;75.77;102179.00;5005479;28;20238;-82
2023/04/18 08:43:48;;;;;;;11.43;10.63;;;;;;;10.02;74.88;102199.22;5004365;28;20199;-81
2023/04/18 08:46:14;;;;;;;11.47;10.50;;;;;;;10.18;74.59;102231.59;5003975;28;20740;-81
2023/04/18 08:48:41;;;;;;;12.07;11.03;;;;;;;10.24;74.17;102244.72;5004418;28;20230;-81
2023/04/18 08:51:09;;;;;;;12.53;11.37;;;;;;;10.26;72.92;102269.09;5003553;28;20219;-81
2023/04/18 08:53:35;;;;;;;11.43;10.63;;;;;;;10.20;73.63;102288.16;5003701;28;20312;-83
2023/04/18 08:56:04;;;;;;;13.43;12.37;;;;;;;10.35;73.12;102284.91;5003569;28;20673;-82
2023/04/18 08:58:32;;;;;;;12.57;11.57;;;;;;;10.47;72.39;102297.22;4989766;28;20238;-83
2023/04/18 09:00:58;;;;;;;11.60;10.60;;;;;;;10.51;71.48;102328.59;5001266;28;20569;-84
2023/04/18 09:03:39;;;;;;;11.93;10.97;;;;;;;10.46;71.14;102361.59;5004419;28;20210;-83
2023/04/18 09:06:07;;;;;;;12.37;11.37;;;;;;;10.45;71.93;102353.78;5003863;28;20207;-83
2023/04/18 09:08:35;;;;;;;12.30;11.30;;;;;;;10.41;72.89;102349.38;5003907;28;20561;-84
2023/04/18 09:11:27;;;;;;;12.07;11.07;;;;;;;10.47;72.08;102339.00;5003693;28;20283;-82
2023/04/18 09:13:55;;;;;;;11.53;10.63;;;;;;;10.51;72.03;102344.25;5004488;28;20273;-84
2023/04/18 09:16:22;;;;;;;11.83;10.93;;;;;;;10.49;71.63;102353.81;5003986;28;20211;-83
2023/04/18 09:19:08;;;;;;;12.03;11.03;;;;;;;10.46;71.08;102372.03;5003484;28;20321;-81
2023/04/18 09:21:35;;;;;;;12.10;11.20;;;;;;;10.46;72.73;102355.50;5003257;28;20210;-83
2023/04/18 09:24:19;;;;;;;12.60;11.50;;;;;;;10.53;72.67;102326.00;5003558;28;20218;-81
2023/04/18 09:26:46;;;;;;;10.27;9.50;;;;;;;10.56;70.71;102333.88;5003805;28;20242;-83
2023/04/18 09:29:13;;;;;;;11.77;10.87;;;;;;;10.54;70.18;102382.59;4992285;28;20216;-83
2023/04/18 09:31:56;;;;;;;11.33;10.43;;;;;;;10.58;70.02;102383.50;4984532;28;20260;-81
2023/04/18 09:34:25;;;;;;;15.43;11.73;;;;;;;10.60;71.64;102385.28;4984539;28;20633;-81
2023/04/18 09:37:06;;;;;;;12.43;11.53;;;;;;;10.76;71.13;102346.28;4983520;28;20234;-81
2023/04/18 09:39:34;;;;;;;12.07;11.10;;;;;;;10.79;70.00;102365.47;4984330;28;20256;-81
2023/04/18 09:42:01;;;;;;;11.27;10.37;;;;;;;10.83;70.03;102384.69;4984164;28;20258;-82
2023/04/18 09:44:27;;;;;;;11.30;10.40;;;;;;;10.77;70.44;102389.84;4983306;28;20243;-84
2023/04/18 09:46:54;;;;;;;10.53;9.73;;;;;;;10.87;69.89;102371.66;4982985;28;20239;-82
2023/04/18 09:49:20;;;;;;;9.47;8.77;;;;;;;10.98;68.89;102392.69;4984109;28;20268;-82
2023/04/18 09:51:50;;;;;;;9.60;8.73;;;;;;;11.05;69.14;102407.56;4984060;28;20212;-83
2023/04/18 09:54:19;;;;;;;9.93;9.23;;;;;;;11.12;68.36;102413.75;4983787;28;20236;-82
2023/04/18 09:56:49;;;;;;;9.53;8.83;;;;;;;11.13;67.87;102423.34;4983386;28;20269;-82
2023/04/18 09:59:21;;;;;;;9.27;8.57;;;;;;;11.14;67.74;102456.47;4991126;28;20262;-82
2023/04/18 10:01:49;;;;;;;8.97;8.37;;;;;;;11.03;67.27;102479.84;4982725;28;20213;-82
2023/04/18 10:04:16;;;;;;;8.77;8.07;;;;;;;11.03;67.72;102469.41;4982268;28;20212;-84
2023/04/18 10:06:46;;;;;;;9.87;9.07;;;;;;;10.99;69.19;102448.44;4982619;28;20210;-83
2023/04/18 10:09:14;;;;;;;9.07;8.37;;;;;;;11.04;67.02;102438.91;4982957;28;20210;-82
2023/04/18 10:11:41;;;;;;;9.47;8.67;;;;;;;11.08;67.86;102453.75;4984706;28;20235;-81
2023/04/18 10:14:12;;;;;;;9.03;8.13;;;;;;;10.98;67.06;102471.09;4984130;28;20220;-81
2023/04/18 10:16:39;;;;;;;9.33;8.53;;;;;;;10.96;67.94;102464.06;4983890;28;20236;-82
2023/04/18 10:19:20;;;;;;;8.83;8.13;;;;;;;10.99;69.00;102454.53;4984117;28;20262;-83
2023/04/18 10:21:51;;;;;;;9.27;8.43;;;;;;;10.90;68.29;102452.72;4984781;28;20208;-81
2023/04/18 10:24:48;;;;;;;8.90;8.20;;;;;;;10.88;68.39;102440.47;4984299;28;20211;-81
2023/04/18 10:27:15;;;;;;;9.23;8.53;;;;;;;10.87;68.09;102430.88;4986726;28;20295;-81
2023/04/18 10:29:50;;;;;;;8.63;8.03;;;;;;;10.89;68.11;102431.78;4988479;28;20238;-81
2023/04/18 10:32:18;;;;;;;8.10;7.50;;;;;;;10.78;68.48;102429.03;4983606;28;20210;-82
2023/04/18 10:34:46;;;;;;;7.80;7.20;;;;;;;10.82;69.09;102425.63;4982539;28;20214;-81
2023/04/18 10:37:12;;;;;;;8.30;7.63;;;;;;;10.85;69.41;102403.88;4978254;28;20228;-81
2023/04/18 10:39:59;;;;;;;7.67;7.00;;;;;;;10.92;68.89;102397.84;4986720;28;20214;-82
2023/04/18 10:42:58;;;;;;;7.67;7.07;;;;;;;11.00;68.01;102388.38;4989597;28;20207;-83
2023/04/18 10:45:27;;;;;;;7.80;7.20;;;;;;;11.05;67.75;102411.94;4981867;28;20207;-80
2023/04/18 10:48:24;;;;;;;8.47;7.80;;;;;;;11.03;67.49;102421.50;4978678;28;20266;-80
2023/04/18 10:51:13;;;;;;;7.97;7.27;;;;;;;10.97;68.24;102435.34;5008915;22;20232;-81
2023/04/18 10:53:51;;;;;;;7.87;7.27;;;;;;;11.05;67.46;102427.59;5013154;28;20213;-80
2023/04/18 10:56:17;;;;;;;7.43;6.93;;;;;;;11.07;66.85;102444.19;5013545;28;20241;-80
2023/04/18 10:58:49;;;;;;;8.30;7.60;;;;;;;11.07;66.33;102462.47;5007819;28;20230;-79
2023/04/18 11:01:24;;;;;;;8.37;7.77;;;;;;;11.00;68.18;102448.47;5028560;28;20240;-79
2023/04/18 11:03:50;;;;;;;7.67;7.07;;;;;;;11.08;66.42;102444.22;5032424;28;20209;-77
2023/04/18 11:06:17;;;;;;;7.90;7.30;;;;;;;11.08;66.72;102470.34;5032381;28;20266;-77
2023/04/18 11:08:44;;;;;;;7.40;6.90;;;;;;;11.04;67.36;102471.16;5032407;28;20209;-78
2023/04/18 11:11:10;;;;;;;8.67;8.07;;;;;;;11.13;66.45;102459.94;5032341;28;20233;-79
2023/04/18 11:13:36;;;;;;;9.63;8.90;;;;;;;11.16;65.86;102482.59;5032133;28;20270;-77
2023/04/18 11:16:03;;;;;;;12.50;11.60;;;;;;;11.22;66.28;102477.44;5032463;28;20213;-80
2023/04/18 11:18:40;;;;;;;10.13;9.43;;;;;;;11.22;65.17;102488.78;5031587;28;20229;-79
2023/04/18 11:21:07;;;;;;;10.03;9.33;;;;;;;11.16;64.71;102508.75;5032665;28;20269;-78
2023/04/18 11:23:33;;;;;;;10.63;9.93;;;;;;;11.16;65.83;102524.41;5032560;28;20213;-78